Terminal Aerodrome Forecast
Issued by NWS Sioux Falls, SD

Home | Current Version | Previous Version | Text Only | Print | Product List | Glossary On
Versions: 1 2 3 4 5 6 7 8 9 10 11 12 13 14 15 16
000
FTUS43 KFSD 111100
TAFHON
TAF
KHON 111136Z 1112/1212 20010KT P6SM SCT050 SCT250
     FM111600 17007KT P6SM SCT250
     FM112000 14007KT P6SM SCT030 SCT250
     FM120600 VRB04KT P6SM BKN045=

USA.gov is the U.S. government's official web portal to all federal, state and local government web resources and services.